createdAt,value
2019-03-10T00:01:02.310Z,12.20
2019-03-10T00:03:45.877Z,12.20
2019-03-10T00:06:17.751Z,12.20
2019-03-10T00:08:52.294Z,12.20
2019-03-10T00:11:23.522Z,12.20
2019-03-10T00:14:04.784Z,12.20
2019-03-10T00:16:37.685Z,12.20
2019-03-10T00:19:08.655Z,12.20
2019-03-10T00:21:40.466Z,12.30
2019-03-10T00:24:20.555Z,12.20
2019-03-10T00:26:52.155Z,12.20
2019-03-10T00:30:12.823Z,12.20
2019-03-10T00:32:58.361Z,12.20
2019-03-10T00:35:30.735Z,12.20
2019-03-10T00:38:09.498Z,12.10
2019-03-10T00:41:18.500Z,12.10
2019-03-10T00:44:49.012Z,12.10
2019-03-10T00:48:17.889Z,12.00
2019-03-10T00:51:35.783Z,12.00
2019-03-10T00:54:07.320Z,12.00
2019-03-10T00:56:38.953Z,11.90
2019-03-10T00:59:10.606Z,12.00
2019-03-10T01:01:41.901Z,12.00
2019-03-10T01:04:12.934Z,11.90
2019-03-10T01:06:44.822Z,11.90
2019-03-10T01:09:16.544Z,11.90
2019-03-10T01:11:47.818Z,11.90
2019-03-10T01:14:19.397Z,11.90
2019-03-10T01:16:51.099Z,11.90
2019-03-10T01:19:24.763Z,11.80
2019-03-10T01:21:56.398Z,11.80
2019-03-10T01:24:27.944Z,11.90
2019-03-10T01:26:59.311Z,11.90
2019-03-10T01:29:30.870Z,11.80
2019-03-10T01:32:43.931Z,11.80
2019-03-10T01:35:29.355Z,11.70
2019-03-10T01:38:01.236Z,11.70
2019-03-10T01:40:32.565Z,11.70
2019-03-10T01:43:04.216Z,11.80
2019-03-10T01:45:35.536Z,11.80
2019-03-10T01:48:07.117Z,11.80
2019-03-10T01:50:39.011Z,11.80
2019-03-10T01:53:10.587Z,11.80
2019-03-10T01:55:42.474Z,11.70
2019-03-10T01:58:14.046Z,11.60
2019-03-10T02:00:45.934Z,11.60
2019-03-10T02:03:17.807Z,11.60
2019-03-10T02:05:49.402Z,11.60
2019-03-10T02:08:20.980Z,11.70
2019-03-10T02:10:52.862Z,11.70
2019-03-10T02:13:24.082Z,11.70
2019-03-10T02:15:55.326Z,11.70
2019-03-10T02:18:26.038Z,11.50
2019-03-10T02:20:57.588Z,11.70
2019-03-10T02:23:29.117Z,11.70
2019-03-10T02:26:01.105Z,11.60
2019-03-10T02:28:32.515Z,11.60
2019-03-10T02:31:04.228Z,11.50
2019-03-10T02:33:35.988Z,11.50
2019-03-10T02:36:07.840Z,11.60
2019-03-10T02:38:38.819Z,11.60
2019-03-10T02:41:10.422Z,11.50
2019-03-10T02:43:42.289Z,11.60
2019-03-10T02:46:13.542Z,11.70
2019-03-10T02:48:45.442Z,11.60
2019-03-10T02:51:16.388Z,11.50
2019-03-10T02:53:47.699Z,11.40
2019-03-10T02:56:19.522Z,11.30
2019-03-10T02:58:50.787Z,11.30
2019-03-10T03:01:21.820Z,11.40
2019-03-10T03:03:53.350Z,11.50
2019-03-10T03:06:25.256Z,11.50
2019-03-10T03:08:56.552Z,11.50
2019-03-10T03:11:27.481Z,11.50
2019-03-10T03:13:58.129Z,11.50
2019-03-10T03:16:30.077Z,11.40
2019-03-10T03:19:01.041Z,11.30
2019-03-10T03:21:43.079Z,11.30
2019-03-10T03:24:06.757Z,11.10
2019-03-10T03:26:38.476Z,11.00
2019-03-10T03:29:09.454Z,11.10
2019-03-10T03:31:40.448Z,11.00
2019-03-10T03:34:12.025Z,10.90
2019-03-10T03:36:43.336Z,10.90
2019-03-10T03:39:40.408Z,10.90
2019-03-10T03:42:12.166Z,10.80
2019-03-10T03:44:43.731Z,10.60
2019-03-10T03:47:15.292Z,10.60
2019-03-10T03:49:46.865Z,10.60
2019-03-10T03:52:17.878Z,10.60
2019-03-10T03:54:49.149Z,10.40
2019-03-10T03:57:20.492Z,10.50
2019-03-10T03:59:51.992Z,10.40
2019-03-10T04:02:50.913Z,10.30
2019-03-10T04:05:22.136Z,10.20
2019-03-10T04:07:52.908Z,10.20
2019-03-10T04:10:24.955Z,10.20
2019-03-10T04:12:56.776Z,10.10
2019-03-10T04:15:27.765Z,10.00
2019-03-10T04:17:59.390Z,10.00
2019-03-10T04:20:30.333Z,10.00
2019-03-10T04:23:01.564Z,9.90
2019-03-10T04:25:32.494Z,9.90
2019-03-10T04:28:03.804Z,9.90
2019-03-10T04:30:35.037Z,9.90
2019-03-10T04:33:06.305Z,9.80
2019-03-10T04:35:37.908Z,9.80
2019-03-10T04:38:09.161Z,9.70
2019-03-10T04:40:40.118Z,9.70
2019-03-10T04:43:11.982Z,9.80
2019-03-10T04:45:43.618Z,9.70
2019-03-10T04:48:15.448Z,9.70
2019-03-10T04:50:47.303Z,9.70
2019-03-10T04:53:18.518Z,9.50
2019-03-10T04:55:55.002Z,9.60
2019-03-10T04:58:26.554Z,9.60
2019-03-10T05:00:58.494Z,9.60
2019-03-10T05:03:30.062Z,9.60
2019-03-10T05:06:01.118Z,9.60
2019-03-10T05:08:32.052Z,9.60
2019-03-10T05:11:03.610Z,9.50
2019-03-10T05:13:34.861Z,9.60
2019-03-10T05:16:05.789Z,9.60
2019-03-10T05:18:37.493Z,9.70
2019-03-10T05:21:09.600Z,9.80
2019-03-10T05:23:46.299Z,9.70
2019-03-10T05:26:18.349Z,9.70
2019-03-10T05:28:50.759Z,9.60
2019-03-10T05:31:22.347Z,9.60
2019-03-10T05:33:53.929Z,9.60
2019-03-10T05:36:25.394Z,9.50
2019-03-10T05:38:56.891Z,9.50
2019-03-10T05:41:28.752Z,9.50
2019-03-10T05:44:00.097Z,9.60
2019-03-10T05:46:31.651Z,9.50
2019-03-10T05:49:02.884Z,9.40
2019-03-10T05:51:34.722Z,9.30
2019-03-10T05:54:06.148Z,9.40
2019-03-10T05:56:37.422Z,9.50
2019-03-10T05:59:08.767Z,9.50
2019-03-10T06:01:40.324Z,9.40
2019-03-10T06:04:11.619Z,9.50
2019-03-10T06:06:43.214Z,9.40
2019-03-10T06:09:14.826Z,9.40
2019-03-10T06:11:46.103Z,9.50
2019-03-10T06:14:17.669Z,9.60
2019-03-10T06:16:48.763Z,9.60
2019-03-10T06:19:20.608Z,9.50
2019-03-10T06:21:51.579Z,9.40
2019-03-10T06:24:23.482Z,9.50
2019-03-10T06:26:54.454Z,9.40
2019-03-10T06:29:25.686Z,9.50
2019-03-10T06:31:57.552Z,9.50
2019-03-10T06:34:29.131Z,9.50
2019-03-10T06:37:00.701Z,9.60
2019-03-10T06:39:31.929Z,9.60
2019-03-10T06:42:03.187Z,9.60
2019-03-10T06:44:34.143Z,9.70
2019-03-10T06:47:05.381Z,9.80
2019-03-10T06:49:37.140Z,9.90
2019-03-10T06:52:08.677Z,10.00
2019-03-10T06:54:40.354Z,10.10
2019-03-10T06:57:11.048Z,10.20
2019-03-10T06:59:43.017Z,10.30
2019-03-10T07:02:14.781Z,10.40
2019-03-10T07:04:46.101Z,10.50
2019-03-10T07:07:17.658Z,10.60
2019-03-10T07:09:48.659Z,10.60
2019-03-10T07:12:19.907Z,10.60
2019-03-10T07:14:52.171Z,10.70
2019-03-10T07:17:23.872Z,10.70
2019-03-10T07:19:55.251Z,10.80
2019-03-10T07:22:26.495Z,10.80
2019-03-10T07:24:57.511Z,10.90
2019-03-10T07:27:37.095Z,10.90
2019-03-10T07:30:25.801Z,10.90
2019-03-10T07:33:12.145Z,11.10
2019-03-10T07:35:56.399Z,11.10
2019-03-10T07:38:37.556Z,11.10
2019-03-10T07:41:36.539Z,11.20
2019-03-10T07:44:15.278Z,11.30
2019-03-10T07:47:11.194Z,11.30
2019-03-10T07:49:58.835Z,11.40
2019-03-10T07:52:47.461Z,11.40
2019-03-10T07:55:38.291Z,11.50
2019-03-10T07:58:31.614Z,11.50
2019-03-10T08:01:24.800Z,11.60
2019-03-10T08:04:18.274Z,11.70
2019-03-10T08:06:58.023Z,11.70
2019-03-10T08:09:55.436Z,11.70
2019-03-10T08:12:45.935Z,11.70
2019-03-10T08:15:30.069Z,11.60
2019-03-10T08:18:12.736Z,11.70
2019-03-10T08:20:57.329Z,11.80
2019-03-10T08:23:47.491Z,11.90
2019-03-10T08:26:30.521Z,12.00
2019-03-10T08:29:17.725Z,12.10
2019-03-10T08:32:12.717Z,12.20
2019-03-10T08:35:03.035Z,12.20
2019-03-10T08:38:02.356Z,12.20
2019-03-10T08:40:42.294Z,12.20
2019-03-10T08:43:20.303Z,12.30
2019-03-10T08:46:19.236Z,12.40
2019-03-10T08:49:00.120Z,12.30
2019-03-10T08:51:37.909Z,12.40
2019-03-10T08:54:13.171Z,12.50
2019-03-10T08:57:03.275Z,12.50
2019-03-10T08:59:49.022Z,12.50
2019-03-10T09:02:31.365Z,12.60
2019-03-10T09:05:17.405Z,12.60
2019-03-10T09:07:55.143Z,12.60
2019-03-10T09:10:36.798Z,12.70
2019-03-10T09:13:27.290Z,12.60
2019-03-10T09:16:14.673Z,12.70
2019-03-10T09:18:59.636Z,12.70
2019-03-10T09:21:55.866Z,12.60
2019-03-10T09:24:55.253Z,12.60
2019-03-10T09:27:43.816Z,12.70
2019-03-10T09:30:51.809Z,12.90
2019-03-10T09:33:47.766Z,12.90
2019-03-10T09:36:32.647Z,13.10
2019-03-10T09:39:32.027Z,13.00
2019-03-10T09:42:26.454Z,13.10
2019-03-10T09:45:25.940Z,13.20
2019-03-10T09:48:24.284Z,13.20
2019-03-10T09:51:21.297Z,13.20
2019-03-10T09:54:17.471Z,13.30
2019-03-10T09:57:07.492Z,13.30
2019-03-10T09:59:50.743Z,13.20
2019-03-10T10:02:31.017Z,13.00
2019-03-10T10:05:08.837Z,13.20
2019-03-10T10:08:05.887Z,13.10
2019-03-10T10:11:08.367Z,13.10
2019-03-10T10:14:05.470Z,13.00
2019-03-10T10:16:54.298Z,13.00
2019-03-10T10:19:42.438Z,13.10
2019-03-10T10:22:34.700Z,13.40
2019-03-10T10:25:20.137Z,13.60
2019-03-10T10:28:25.253Z,13.50
2019-03-10T10:31:18.266Z,13.60
2019-03-10T10:34:15.666Z,13.50
2019-03-10T10:37:04.551Z,13.30
2019-03-10T10:40:00.850Z,13.40
2019-03-10T10:42:52.660Z,13.70
2019-03-10T10:45:29.507Z,14.00
2019-03-10T10:48:19.063Z,14.10
2019-03-10T10:51:08.976Z,14.10
2019-03-10T10:54:08.695Z,14.20
2019-03-10T10:57:04.580Z,14.30
2019-03-10T10:59:57.325Z,14.30
2019-03-10T11:02:46.980Z,14.40
2019-03-10T11:05:37.430Z,14.60
2019-03-10T11:08:17.879Z,14.80
2019-03-10T11:11:11.420Z,14.90
2019-03-10T11:13:56.253Z,14.90
2019-03-10T11:16:52.535Z,14.80
2019-03-10T11:19:36.137Z,14.80
2019-03-10T11:22:35.986Z,14.80
2019-03-10T11:25:14.229Z,14.80
2019-03-10T11:27:59.422Z,15.10
2019-03-10T11:30:52.714Z,15.40
2019-03-10T11:33:41.571Z,15.40
2019-03-10T11:36:30.720Z,15.30
2019-03-10T11:39:20.943Z,15.30
2019-03-10T11:42:29.542Z,15.20
2019-03-10T11:45:08.734Z,15.10
2019-03-10T11:47:47.673Z,15.00
2019-03-10T11:50:41.418Z,15.40
2019-03-10T11:53:19.675Z,15.40
2019-03-10T11:56:17.110Z,15.30
2019-03-10T11:59:13.096Z,15.30
2019-03-10T12:02:15.933Z,15.80
2019-03-10T12:04:56.135Z,16.10
2019-03-10T12:07:55.672Z,16.10
2019-03-10T12:10:27.467Z,15.80
2019-03-10T12:12:59.433Z,15.40
2019-03-10T12:15:30.844Z,15.00
2019-03-10T12:18:02.762Z,14.70
2019-03-10T12:20:34.471Z,14.70
2019-03-10T12:23:06.388Z,14.50
2019-03-10T12:25:38.434Z,14.20
2019-03-10T12:28:10.502Z,13.90
2019-03-10T12:30:42.301Z,13.90
2019-03-10T12:33:13.719Z,13.70
2019-03-10T12:35:45.077Z,13.50
2019-03-10T12:38:16.536Z,13.30
2019-03-10T12:40:47.854Z,12.60
2019-03-10T12:43:19.649Z,12.50
2019-03-10T12:45:51.333Z,12.40
2019-03-10T12:48:22.938Z,12.90
2019-03-10T12:50:54.689Z,13.70
2019-03-10T12:53:25.993Z,14.30
2019-03-10T12:55:57.013Z,14.60
2019-03-10T12:58:28.711Z,14.90
2019-03-10T13:01:06.296Z,15.00
2019-03-10T13:03:33.457Z,15.20
2019-03-10T13:06:04.843Z,15.70
2019-03-10T13:08:36.731Z,15.90
2019-03-10T13:11:08.345Z,15.90
2019-03-10T13:13:39.735Z,16.20
2019-03-10T13:16:12.338Z,16.40
2019-03-10T13:18:43.769Z,16.50
2019-03-10T13:21:15.147Z,16.30
2019-03-10T13:23:47.039Z,16.60
2019-03-10T13:26:18.638Z,16.70
2019-03-10T13:28:50.097Z,16.90
2019-03-10T13:31:21.392Z,16.90
2019-03-10T13:33:52.551Z,17.00
2019-03-10T13:36:24.143Z,17.20
2019-03-10T13:38:55.411Z,17.30
2019-03-10T13:41:27.336Z,17.70
2019-03-10T13:43:59.265Z,17.60
2019-03-10T13:46:30.972Z,17.70
2019-03-10T13:49:02.733Z,17.60
2019-03-10T13:51:34.543Z,17.30
2019-03-10T13:54:06.112Z,17.60
2019-03-10T13:56:37.543Z,17.60
2019-03-10T13:59:09.288Z,17.40
2019-03-10T14:01:40.704Z,17.40
2019-03-10T14:04:12.513Z,17.60
2019-03-10T14:06:43.553Z,17.60
2019-03-10T14:09:14.692Z,17.60
2019-03-10T14:11:46.603Z,17.60
2019-03-10T14:14:18.250Z,17.90
2019-03-10T14:16:49.798Z,18.00
2019-03-10T14:19:20.838Z,18.00
2019-03-10T14:21:52.694Z,18.00
2019-03-10T14:24:24.294Z,18.00
2019-03-10T14:26:56.552Z,17.50
2019-03-10T14:29:28.586Z,17.40
2019-03-10T14:32:00.127Z,17.30
2019-03-10T14:34:31.757Z,17.40
2019-03-10T14:37:02.774Z,17.50
2019-03-10T14:39:34.561Z,17.50
2019-03-10T14:42:05.894Z,17.60
2019-03-10T14:44:37.885Z,17.10
2019-03-10T14:47:09.620Z,17.00
2019-03-10T14:49:41.201Z,16.90
2019-03-10T14:52:12.657Z,16.70
2019-03-10T14:54:44.026Z,16.50
2019-03-10T14:57:15.357Z,16.70
2019-03-10T14:59:46.368Z,16.60
2019-03-10T15:02:17.732Z,16.60
2019-03-10T15:04:49.132Z,16.60
2019-03-10T15:07:20.553Z,16.70
2019-03-10T15:09:52.416Z,16.50
2019-03-10T15:12:24.155Z,16.40
2019-03-10T15:14:55.776Z,15.90
2019-03-10T15:17:27.388Z,15.90
2019-03-10T15:19:59.439Z,15.90
2019-03-10T15:22:31.546Z,15.80
2019-03-10T15:25:03.446Z,15.70
2019-03-10T15:27:35.036Z,15.60
2019-03-10T15:30:07.885Z,15.30
2019-03-10T15:32:39.197Z,15.20
2019-03-10T15:35:10.590Z,15.10
2019-03-10T15:37:41.868Z,15.00
2019-03-10T15:40:14.749Z,15.10
2019-03-10T15:42:46.444Z,14.90
2019-03-10T15:45:17.993Z,14.90
2019-03-10T15:47:49.879Z,14.80
2019-03-10T15:50:24.380Z,14.90
2019-03-10T15:52:55.383Z,14.80
2019-03-10T15:55:26.756Z,14.70
2019-03-10T15:57:58.315Z,14.60
2019-03-10T16:00:29.703Z,14.40
2019-03-10T16:03:01.600Z,14.20
2019-03-10T16:05:33.327Z,14.10
2019-03-10T16:08:05.104Z,13.90
2019-03-10T16:10:36.617Z,13.90
2019-03-10T16:13:08.364Z,13.80
2019-03-10T16:15:40.007Z,13.80
2019-03-10T16:18:11.559Z,13.70
2019-03-10T16:20:43.706Z,13.60
2019-03-10T16:23:15.898Z,13.50
2019-03-10T16:25:47.910Z,13.50
2019-03-10T16:28:19.756Z,13.40
2019-03-10T16:30:51.054Z,13.40
2019-03-10T16:33:25.265Z,13.30
2019-03-10T16:35:56.480Z,13.30
2019-03-10T16:38:54.394Z,13.20
2019-03-10T16:41:16.348Z,13.10
2019-03-10T16:43:47.992Z,13.10
2019-03-10T16:46:19.845Z,13.10
2019-03-10T16:48:51.643Z,13.00
2019-03-10T16:51:23.936Z,12.90
2019-03-10T16:53:55.528Z,12.70
2019-03-10T16:56:34.156Z,12.70
2019-03-10T16:59:04.953Z,12.60
2019-03-10T17:01:36.289Z,12.50
2019-03-10T17:04:07.278Z,12.40
2019-03-10T17:06:38.974Z,12.40
2019-03-10T17:09:21.225Z,12.30
2019-03-10T17:11:52.552Z,12.40
2019-03-10T17:14:24.065Z,12.20
2019-03-10T17:16:57.844Z,12.20
2019-03-10T17:19:30.694Z,12.20
2019-03-10T17:22:03.444Z,12.10
2019-03-10T17:24:35.383Z,12.10
2019-03-10T17:27:07.537Z,12.10
2019-03-10T17:29:40.239Z,12.10
2019-03-10T17:32:14.399Z,12.10
2019-03-10T17:34:46.849Z,12.10
2019-03-10T17:37:19.805Z,12.10
2019-03-10T17:39:52.953Z,12.10
2019-03-10T17:42:24.458Z,12.10
2019-03-10T17:44:56.435Z,12.20
2019-03-10T17:47:28.991Z,12.20
2019-03-10T17:50:02.155Z,12.10
2019-03-10T17:52:34.636Z,11.70
2019-03-10T17:55:09.876Z,11.00
2019-03-10T17:57:40.790Z,10.50
2019-03-10T18:00:14.964Z,10.40
2019-03-10T18:02:46.998Z,10.10
2019-03-10T18:05:21.917Z,9.90
2019-03-10T18:07:54.259Z,9.80
2019-03-10T18:10:28.109Z,9.60
2019-03-10T18:12:58.891Z,9.60
2019-03-10T18:15:32.493Z,9.60
2019-03-10T18:18:04.766Z,9.50
2019-03-10T18:20:36.741Z,9.50
2019-03-10T18:23:08.376Z,9.40
2019-03-10T18:25:40.848Z,9.50
2019-03-10T18:28:13.920Z,9.40
2019-03-10T18:30:45.021Z,9.40
2019-03-10T18:33:16.828Z,9.30
2019-03-10T18:35:48.780Z,9.40
2019-03-10T18:38:21.016Z,9.40
2019-03-10T18:40:52.988Z,9.30
2019-03-10T18:43:25.195Z,9.30
2019-03-10T18:45:57.084Z,9.30
2019-03-10T18:48:29.036Z,9.30
2019-03-10T18:51:00.315Z,9.30
2019-03-10T18:53:32.327Z,9.30
2019-03-10T18:56:03.768Z,9.30
2019-03-10T18:58:36.225Z,9.30
2019-03-10T19:01:09.440Z,9.20
2019-03-10T19:03:41.310Z,9.30
2019-03-10T19:06:13.380Z,9.20
2019-03-10T19:08:45.570Z,9.20
2019-03-10T19:11:20.613Z,9.20
2019-03-10T19:13:52.691Z,9.20
2019-03-10T19:16:26.940Z,9.10
2019-03-10T19:19:01.938Z,9.10
2019-03-10T19:21:33.509Z,9.00
2019-03-10T19:24:05.781Z,9.10
2019-03-10T19:26:37.814Z,9.00
2019-03-10T19:29:10.098Z,9.00
2019-03-10T19:31:42.266Z,9.00
2019-03-10T19:34:14.436Z,8.90
2019-03-10T19:36:56.501Z,9.00
2019-03-10T19:39:20.120Z,8.90
2019-03-10T19:41:52.073Z,8.90
2019-03-10T19:44:23.906Z,8.80
2019-03-10T19:46:56.060Z,8.90
2019-03-10T19:49:28.395Z,8.80
2019-03-10T19:51:59.824Z,8.80
2019-03-10T19:54:31.770Z,8.70
2019-03-10T19:57:03.372Z,8.70
2019-03-10T19:59:35.985Z,8.80
2019-03-10T20:02:07.150Z,8.80
2019-03-10T20:04:39.422Z,8.90
2019-03-10T20:07:10.562Z,8.90
2019-03-10T20:09:42.258Z,8.70
2019-03-10T20:12:13.115Z,8.70
2019-03-10T20:14:44.566Z,8.80
2019-03-10T20:17:16.283Z,8.70
2019-03-10T20:19:48.161Z,8.70
2019-03-10T20:22:19.885Z,8.60
2019-03-10T20:24:51.908Z,8.60
2019-03-10T20:27:23.145Z,8.60
2019-03-10T20:29:55.953Z,8.70
2019-03-10T20:32:27.479Z,8.70
2019-03-10T20:34:59.705Z,8.70
2019-03-10T20:37:31.524Z,8.60
2019-03-10T20:40:04.171Z,8.70
2019-03-10T20:42:35.807Z,8.60
2019-03-10T20:45:08.592Z,8.60
2019-03-10T20:47:40.846Z,8.50
2019-03-10T20:50:14.039Z,8.50
2019-03-10T20:52:45.958Z,8.60
2019-03-10T20:55:19.818Z,8.60
2019-03-10T20:57:51.477Z,8.50
2019-03-10T21:00:23.973Z,8.40
2019-03-10T21:02:55.475Z,8.40
2019-03-10T21:05:27.290Z,8.30
2019-03-10T21:08:00.280Z,8.20
2019-03-10T21:10:32.074Z,8.20
2019-03-10T21:13:04.928Z,8.10
2019-03-10T21:15:36.569Z,8.10
2019-03-10T21:18:07.828Z,8.10
2019-03-10T21:20:39.489Z,8.20
2019-03-10T21:23:11.250Z,8.20
2019-03-10T21:25:43.843Z,8.10
2019-03-10T21:28:16.778Z,8.30
2019-03-10T21:30:51.003Z,8.30
2019-03-10T21:33:22.878Z,8.30
2019-03-10T21:35:55.686Z,8.30
2019-03-10T21:38:27.248Z,8.20
2019-03-10T21:40:59.600Z,8.20
2019-03-10T21:43:31.311Z,8.30
2019-03-10T21:46:03.759Z,8.40
2019-03-10T21:48:35.797Z,8.30
2019-03-10T21:51:07.546Z,8.40
2019-03-10T21:53:39.360Z,8.40
2019-03-10T21:56:11.920Z,8.50
2019-03-10T21:58:43.648Z,8.40
2019-03-10T22:01:15.254Z,8.40
2019-03-10T22:03:46.962Z,8.40
2019-03-10T22:06:18.627Z,8.30
2019-03-10T22:08:50.304Z,8.40
2019-03-10T22:11:21.858Z,8.40
2019-03-10T22:13:53.209Z,8.40
2019-03-10T22:16:24.862Z,8.30
2019-03-10T22:18:56.249Z,8.20
2019-03-10T22:21:27.732Z,8.30
2019-03-10T22:23:59.893Z,8.30
2019-03-10T22:26:31.573Z,8.20
2019-03-10T22:29:03.538Z,8.10
2019-03-10T22:31:34.618Z,8.10
2019-03-10T22:34:06.384Z,8.00
2019-03-10T22:36:38.392Z,8.00
2019-03-10T22:39:10.285Z,8.00
2019-03-10T22:41:41.916Z,7.90
2019-03-10T22:44:13.558Z,7.90
2019-03-10T22:46:48.096Z,7.90
2019-03-10T22:49:19.998Z,7.90
2019-03-10T22:51:52.016Z,8.00
2019-03-10T22:54:23.370Z,7.90
2019-03-10T22:56:55.157Z,7.80
2019-03-10T22:59:26.708Z,7.80
2019-03-10T23:01:57.879Z,7.80
2019-03-10T23:04:29.461Z,7.70
2019-03-10T23:07:01.200Z,7.70
2019-03-10T23:09:32.817Z,7.60
2019-03-10T23:12:04.074Z,7.60
2019-03-10T23:14:35.943Z,7.50
2019-03-10T23:17:07.461Z,7.60
2019-03-10T23:19:39.671Z,7.60
2019-03-10T23:22:10.378Z,7.60
2019-03-10T23:24:41.396Z,7.50
2019-03-10T23:27:13.465Z,7.50
2019-03-10T23:29:45.331Z,7.50
2019-03-10T23:32:16.915Z,7.50
2019-03-10T23:34:48.766Z,7.30
2019-03-10T23:37:20.069Z,7.30
2019-03-10T23:39:50.763Z,7.30
2019-03-10T23:42:22.670Z,7.30
2019-03-10T23:44:54.768Z,7.20
2019-03-10T23:47:26.648Z,7.20
2019-03-10T23:49:58.601Z,7.20
2019-03-10T23:52:30.014Z,7.20
2019-03-10T23:55:01.578Z,7.10
2019-03-10T23:57:33.296Z,7.20
